Time;durP1;ratioP1;P1;durP2;ratioP2;P2;SDS_P1;SDS_P2;PMS_P1;PMS_P2;Temp;Humidity;BMP_temperature;BMP_pressure;BME280_temperature;BME280_humidity;BME280_pressure;Samples;Min_cycle;Max_cycle;Signal;HPM_P1;HPM_P2
2022/09/30 00:00:45;;;;;;;17.20;16.20;;;;;;;14.73;100.00;100114.84;5044756;28;20037;-73
2022/09/30 00:03:10;;;;;;;16.92;15.93;;;;;;;14.72;100.00;100116.69;5050364;28;20028;-74
2022/09/30 00:05:36;;;;;;;17.40;16.38;;;;;;;14.76;100.00;100117.91;5054374;28;20033;-73
2022/09/30 00:08:01;;;;;;;17.55;16.45;;;;;;;14.70;100.00;100124.09;5053456;28;20033;-74
2022/09/30 00:10:27;;;;;;;17.60;16.50;;;;;;;14.65;100.00;100123.91;5054373;28;20028;-74
2022/09/30 00:12:52;;;;;;;16.45;15.55;;;;;;;14.52;100.00;100114.06;5054322;28;20537;-73
2022/09/30 00:15:19;;;;;;;17.45;16.38;;;;;;;14.55;100.00;100113.69;5053152;28;20017;-73
2022/09/30 00:17:44;;;;;;;17.92;16.83;;;;;;;14.70;100.00;100126.75;5051489;28;20495;-74
2022/09/30 00:20:10;;;;;;;16.45;15.55;;;;;;;14.67;100.00;100129.03;5049880;28;20024;-75
2022/09/30 00:22:35;;;;;;;17.88;16.75;;;;;;;14.56;100.00;100127.84;5054185;28;20491;-73
2022/09/30 00:25:02;;;;;;;17.02;16.02;;;;;;;14.50;100.00;100120.66;5053170;28;20025;-73
2022/09/30 00:27:28;;;;;;;15.93;15.02;;;;;;;14.58;100.00;100128.44;5053860;28;20052;-73
2022/09/30 00:29:53;;;;;;;16.65;15.65;;;;;;;14.56;100.00;100130.50;5054031;28;20554;-73
2022/09/30 00:32:19;;;;;;;15.70;14.80;;;;;;;14.59;100.00;100135.41;5053892;28;20032;-73
2022/09/30 00:34:44;;;;;;;17.58;16.45;;;;;;;14.58;100.00;100142.59;5052071;28;20025;-73
2022/09/30 00:37:13;;;;;;;15.80;14.90;;;;;;;14.63;100.00;100140.13;5050486;28;20021;-73
2022/09/30 00:39:39;;;;;;;16.25;15.27;;;;;;;14.58;100.00;100139.94;5053762;28;20500;-74
2022/09/30 00:42:12;;;;;;;16.20;15.30;;;;;;;14.45;100.00;100133.78;5052935;28;20055;-73
2022/09/30 00:44:54;;;;;;;16.50;15.50;;;;;;;14.43;100.00;100135.84;5045178;28;20527;-74
2022/09/30 00:47:44;;;;;;;15.85;14.95;;;;;;;14.46;100.00;100148.78;5053506;28;20025;-75
2022/09/30 00:50:26;;;;;;;16.00;15.10;;;;;;;14.42;100.00;100145.69;5053155;28;20041;-74
2022/09/30 00:53:19;;;;;;;16.50;15.50;;;;;;;14.47;100.00;100143.28;5049898;28;20025;-73
2022/09/30 00:55:50;;;;;;;15.60;14.73;;;;;;;14.54;100.00;100146.75;5047046;28;20036;-75
2022/09/30 00:58:26;;;;;;;16.08;15.18;;;;;;;14.36;100.00;100152.69;5043769;28;20037;-73
2022/09/30 01:00:51;;;;;;;16.23;15.30;;;;;;;14.38;100.00;100155.97;5052479;28;20024;-74
2022/09/30 01:03:18;;;;;;;16.05;15.15;;;;;;;14.35;100.00;100150.22;5053427;28;20412;-74
2022/09/30 01:05:43;;;;;;;16.65;15.65;;;;;;;14.35;100.00;100148.38;5052981;28;20124;-73
2022/09/30 01:08:09;;;;;;;16.77;15.77;;;;;;;14.28;100.00;100136.09;5053237;28;20486;-74
2022/09/30 01:10:36;;;;;;;16.70;15.70;;;;;;;14.38;100.00;100149.81;5052018;28;20512;-74
2022/09/30 01:13:02;;;;;;;16.80;15.80;;;;;;;14.22;100.00;100145.72;5053358;28;20040;-74
2022/09/30 01:15:46;;;;;;;15.88;14.98;;;;;;;14.18;100.00;100149.84;5053333;28;20032;-72
2022/09/30 01:18:27;;;;;;;15.10;14.30;;;;;;;14.28;100.00;100146.75;5053298;28;20029;-74
2022/09/30 01:21:25;;;;;;;15.40;14.60;;;;;;;14.18;100.00;100159.72;5053258;28;20680;-73
2022/09/30 01:24:13;;;;;;;16.23;15.23;;;;;;;14.12;100.00;100161.34;5052813;28;20025;-73
2022/09/30 01:26:44;;;;;;;15.25;14.45;;;;;;;14.17;100.00;100150.84;5047545;28;20083;-73
2022/09/30 01:29:09;;;;;;;16.05;15.13;;;;;;;14.06;100.00;100162.16;5052882;28;20066;-73
2022/09/30 01:31:53;;;;;;;15.95;15.05;;;;;;;14.10;100.00;100158.03;5051609;28;20028;-73
2022/09/30 01:34:47;;;;;;;16.23;15.32;;;;;;;14.00;100.00;100163.81;5042692;28;20123;-75
2022/09/30 01:37:34;;;;;;;15.82;14.93;;;;;;;13.97;100.00;100169.56;5052111;28;20107;-74
2022/09/30 01:40:06;;;;;;;16.75;15.75;;;;;;;13.98;100.00;100173.06;5030937;28;20068;-74
2022/09/30 01:42:45;;;;;;;16.00;15.13;;;;;;;13.95;100.00;100170.78;5046177;28;20025;-73
2022/09/30 01:45:43;;;;;;;16.85;15.85;;;;;;;13.98;100.00;100176.53;5050385;28;20051;-74
2022/09/30 01:48:14;;;;;;;16.70;15.70;;;;;;;13.91;100.00;100180.22;5034934;28;20049;-73
2022/09/30 01:50:52;;;;;;;15.70;14.85;;;;;;;13.91;100.00;100188.22;5041413;28;20500;-73
2022/09/30 01:53:35;;;;;;;15.80;14.90;;;;;;;13.84;100.00;100185.56;5051350;28;20044;-72
2022/09/30 01:56:23;;;;;;;15.93;15.02;;;;;;;13.70;100.00;100189.22;5047464;28;20112;-73
2022/09/30 01:58:52;;;;;;;16.23;15.32;;;;;;;13.79;100.00;100188.81;5049510;28;20123;-73
2022/09/30 02:01:38;;;;;;;16.95;15.95;;;;;;;13.73;100.00;100188.81;5052302;28;20024;-73
2022/09/30 02:04:18;;;;;;;17.63;16.52;;;;;;;13.80;100.00;100186.97;5052249;28;20159;-72
2022/09/30 02:06:49;;;;;;;17.38;16.27;;;;;;;13.75;100.00;100190.28;5043471;28;20108;-72
2022/09/30 02:09:29;;;;;;;17.52;16.42;;;;;;;13.77;100.00;100196.22;5052066;28;20021;-71
2022/09/30 02:11:58;;;;;;;16.30;15.40;;;;;;;13.72;100.00;100190.66;5051883;28;20025;-72
2022/09/30 02:14:50;;;;;;;17.80;16.63;;;;;;;13.88;100.00;100202.81;5051841;28;20024;-72
2022/09/30 02:17:20;;;;;;;15.70;14.80;;;;;;;13.86;100.00;100194.16;5052017;28;20504;-73
2022/09/30 02:19:51;;;;;;;17.48;16.38;;;;;;;13.84;100.00;100201.56;5051639;28;20028;-73
2022/09/30 02:22:28;;;;;;;16.60;15.60;;;;;;;13.70;100.00;100203.38;5045418;28;20033;-72
2022/09/30 02:25:00;;;;;;;16.30;15.35;;;;;;;13.64;100.00;100204.19;5048318;28;20031;-72
2022/09/30 02:27:41;;;;;;;16.50;15.50;;;;;;;13.73;100.00;100204.81;5051918;28;20112;-73
2022/09/30 02:30:10;;;;;;;16.20;15.25;;;;;;;13.77;100.00;100209.53;5051913;28;20066;-74
2022/09/30 02:32:46;;;;;;;15.90;15.00;;;;;;;13.72;100.00;100197.84;5051841;28;20025;-74
2022/09/30 02:35:39;;;;;;;16.20;15.30;;;;;;;13.62;100.00;100208.91;5051991;28;20021;-74
2022/09/30 02:38:13;;;;;;;17.90;16.70;;;;;;;13.59;100.00;100208.47;5036918;28;20100;-72
2022/09/30 02:40:49;;;;;;;15.80;14.90;;;;;;;13.70;100.00;100215.88;5045363;28;20017;-73
2022/09/30 02:43:19;;;;;;;15.80;14.90;;;;;;;13.66;100.00;100217.31;5050714;28;20021;-74
2022/09/30 02:46:03;;;;;;;16.02;15.13;;;;;;;13.66;100.00;100225.28;5043749;28;20040;-73
2022/09/30 02:48:42;;;;;;;15.43;14.63;;;;;;;13.66;100.00;100215.50;5037808;28;20053;-73
2022/09/30 02:51:27;;;;;;;15.52;14.65;;;;;;;13.67;100.00;100229.63;5037575;28;20037;-73
2022/09/30 02:54:11;;;;;;;15.38;14.57;;;;;;;13.48;100.00;100242.69;5042639;28;20044;-73
2022/09/30 02:56:37;;;;;;;15.23;14.43;;;;;;;13.62;100.00;100240.06;5037495;28;20115;-72
2022/09/30 02:59:03;;;;;;;15.38;14.57;;;;;;;13.55;100.00;100232.88;5033348;28;20073;-72
2022/09/30 03:01:29;;;;;;;15.65;14.75;;;;;;;13.76;100.00;100234.56;5051543;28;20499;-73
2022/09/30 03:04:09;;;;;;;15.77;14.88;;;;;;;13.73;100.00;100231.47;5050411;28;20589;-74
2022/09/30 03:06:35;;;;;;;15.35;14.55;;;;;;;13.80;100.00;100224.31;5042108;28;20112;-74
2022/09/30 03:09:00;;;;;;;15.80;14.90;;;;;;;13.68;100.00;100233.94;5051750;28;20060;-73
2022/09/30 03:11:28;;;;;;;15.35;14.55;;;;;;;13.62;100.00;100240.06;5051534;28;20060;-74
2022/09/30 03:13:54;;;;;;;15.98;15.07;;;;;;;13.62;100.00;100248.88;5052235;28;20384;-72
2022/09/30 03:16:28;;;;;;;14.88;14.07;;;;;;;13.50;100.00;100245.16;5056774;28;20029;-73
2022/09/30 03:19:06;;;;;;;15.68;14.77;;;;;;;13.55;100.00;100246.19;5058001;28;20149;-73
2022/09/30 03:21:34;;;;;;;15.57;14.70;;;;;;;13.54;100.00;100247.22;5045681;28;20110;-74
2022/09/30 03:24:31;;;;;;;15.65;14.75;;;;;;;13.51;100.00;100239.66;5052381;28;20021;-72
2022/09/30 03:27:13;;;;;;;15.60;14.70;;;;;;;13.43;100.00;100238.97;5057820;28;20029;-73
2022/09/30 03:30:00;;;;;;;15.20;14.40;;;;;;;13.35;100.00;100247.97;5057911;28;20032;-74
2022/09/30 03:32:40;;;;;;;15.07;14.27;;;;;;;13.48;100.00;100250.69;5057023;28;20025;-73
2022/09/30 03:35:26;;;;;;;15.35;14.55;;;;;;;13.31;100.00;100249.41;5057845;28;20028;-74
2022/09/30 03:38:01;;;;;;;15.45;14.65;;;;;;;13.28;100.00;100244.47;5042113;28;20040;-72
2022/09/30 03:40:48;;;;;;;15.00;14.20;;;;;;;13.35;100.00;100245.31;5054922;28;20106;-74
2022/09/30 03:43:34;;;;;;;15.90;15.00;;;;;;;13.36;100.00;100254.94;5053623;28;20017;-72
2022/09/30 03:46:12;;;;;;;17.42;16.27;;;;;;;13.33;100.00;100263.34;5049734;28;20039;-73
2022/09/30 03:48:40;;;;;;;15.88;14.98;;;;;;;13.38;100.00;100258.25;5043126;28;20051;-73
2022/09/30 03:51:07;;;;;;;15.80;14.90;;;;;;;13.40;100.00;100250.03;5046953;28;20500;-74
2022/09/30 03:53:39;;;;;;;15.80;14.90;;;;;;;13.16;100.00;100238.88;5057528;28;20052;-74
2022/09/30 03:56:05;;;;;;;15.85;14.95;;;;;;;13.20;100.00;100252.63;5057661;28;20025;-75
2022/09/30 03:58:30;;;;;;;18.80;17.45;;;;;;;13.07;100.00;100249.88;5052013;28;20029;-73
2022/09/30 04:00:56;;;;;;;15.73;14.82;;;;;;;13.10;100.00;100252.97;5058001;28;20021;-72
2022/09/30 04:03:22;;;;;;;16.05;15.15;;;;;;;13.10;100.00;100257.47;5064677;28;20487;-74
2022/09/30 04:05:48;;;;;;;16.42;15.43;;;;;;;13.04;100.00;100264.41;5047241;28;20044;-72
2022/09/30 04:08:14;;;;;;;15.73;14.82;;;;;;;13.11;100.00;100267.94;5056193;28;20036;-73
2022/09/30 04:10:42;;;;;;;15.18;14.38;;;;;;;13.21;100.00;100268.41;5057453;28;20021;-73
2022/09/30 04:13:08;;;;;;;16.13;15.20;;;;;;;13.21;100.00;100257.75;5059807;28;20036;-75
2022/09/30 04:15:35;;;;;;;15.77;14.88;;;;;;;13.62;100.00;100288.88;5052433;28;20417;-75
2022/09/30 04:18:01;;;;;;;17.02;15.93;;;;;;;14.06;100.00;100290.19;5055664;28;20028;-74
2022/09/30 04:20:28;;;;;;;15.32;14.43;;;;;;;14.36;100.00;100277.28;5053403;28;20063;-75
2022/09/30 04:22:56;;;;;;;15.07;14.20;;;;;;;14.58;100.00;100284.09;5056273;28;20029;-76
2022/09/30 04:25:22;;;;;;;16.05;15.05;;;;;;;14.98;100.00;100285.84;5063658;28;20028;-76
2022/09/30 04:27:47;;;;;;;14.65;13.85;;;;;;;15.22;100.00;100281.69;5053994;28;20025;-74
2022/09/30 04:30:13;;;;;;;15.35;14.45;;;;;;;15.86;100.00;100275.44;5052983;28;20039;-74
2022/09/30 04:32:44;;;;;;;13.98;13.20;;;;;;;16.19;100.00;100278.72;5045211;28;20044;-75
2022/09/30 04:35:12;;;;;;;13.75;13.05;;;;;;;16.85;100.00;100269.31;5046211;28;20341;-74
2022/09/30 04:37:45;;;;;;;14.38;13.57;;;;;;;17.50;100.00;100271.47;5047316;28;20461;-75
2022/09/30 04:40:13;;;;;;;14.98;14.10;;;;;;;18.02;100.00;100277.97;5049739;28;20528;-72
2022/09/30 04:42:41;;;;;;;13.25;12.55;;;;;;;18.48;100.00;100271.03;5052817;28;20045;-75
2022/09/30 04:45:09;;;;;;;16.48;15.48;;;;;;;19.12;100.00;100273.84;5054719;28;20123;-72
2022/09/30 04:47:34;;;;;;;12.90;12.30;;;;;;;19.32;100.00;100277.78;5045145;28;20028;-73
2022/09/30 04:50:00;;;;;;;13.05;12.45;;;;;;;20.24;100.00;100279.47;5053624;28;20530;-72
2022/09/30 04:52:25;;;;;;;13.65;12.95;;;;;;;21.57;100.00;100295.66;5049747;28;20036;-72
2022/09/30 04:54:51;;;;;;;13.20;12.55;;;;;;;22.92;100.00;100298.25;5043491;28;20032;-72
2022/09/30 04:57:16;;;;;;;14.02;13.32;;;;;;;23.92;100.00;100298.91;5045698;28;20091;-72
2022/09/30 04:59:42;;;;;;;13.60;12.90;;;;;;;24.55;100.00;100298.69;5043651;28;20603;-72
2022/09/30 05:02:11;;;;;;;13.00;12.40;;;;;;;25.04;100.00;100301.59;5045456;28;20523;-71
2022/09/30 05:04:37;;;;;;;12.70;12.10;;;;;;;26.24;100.00;100305.06;5046750;28;20494;-72
2022/09/30 05:07:07;;;;;;;12.95;12.35;;;;;;;26.75;100.00;100306.56;5051446;28;20017;-72
2022/09/30 05:09:34;;;;;;;13.10;12.50;;;;;;;28.90;89.02;100323.19;5053086;28;20029;-72
2022/09/30 05:12:01;;;;;;;12.70;12.10;;;;;;;28.88;87.02;100317.22;5053128;28;20028;-72
2022/09/30 05:14:27;;;;;;;12.80;12.20;;;;;;;28.75;88.87;100307.06;5052259;28;20087;-72
2022/09/30 05:18:07;;;;;;;12.77;12.18;;;;;;;30.21;76.84;100306.25;5050771;28;20017;-70
2022/09/30 05:20:36;;;;;;;12.80;12.20;;;;;;;28.81;80.17;100296.88;5055670;28;20044;-72
2022/09/30 05:23:02;;;;;;;13.25;12.65;;;;;;;27.31;92.29;100301.31;5046696;28;20032;-73
2022/09/30 05:25:27;;;;;;;12.82;12.23;;;;;;;26.98;93.49;100303.06;5051120;28;20070;-72
2022/09/30 05:27:53;;;;;;;12.82;12.23;;;;;;;25.95;100.00;100313.16;5050735;28;20024;-72
2022/09/30 05:30:18;;;;;;;13.73;13.02;;;;;;;25.77;100.00;100316.53;5061288;28;20047;-72
2022/09/30 05:32:45;;;;;;;13.15;12.52;;;;;;;26.65;100.00;100330.03;5051432;28;20036;-72
2022/09/30 05:35:11;;;;;;;13.75;13.05;;;;;;;26.42;99.96;100322.63;5043561;28;20047;-71
2022/09/30 05:37:36;;;;;;;12.55;11.95;;;;;;;26.14;100.00;100335.03;5067637;28;20460;-71
2022/09/30 05:40:02;;;;;;;15.00;14.20;;;;;;;26.47;100.00;100335.38;5049199;28;20033;-72
2022/09/30 05:42:29;;;;;;;13.93;13.23;;;;;;;26.70;99.50;100335.44;5042081;28;20409;-71
2022/09/30 05:44:55;;;;;;;12.98;12.38;;;;;;;24.45;100.00;100342.88;5052607;28;20024;-71
2022/09/30 05:47:20;;;;;;;13.75;13.05;;;;;;;24.29;100.00;100341.22;5058101;28;20023;-72
2022/09/30 05:49:46;;;;;;;12.88;12.27;;;;;;;23.07;100.00;100347.03;5049337;28;20397;-71
2022/09/30 05:52:13;;;;;;;14.02;13.32;;;;;;;24.15;100.00;100345.56;5053638;28;20086;-72
2022/09/30 05:54:39;;;;;;;14.57;13.77;;;;;;;22.75;100.00;100352.44;5057968;28;20052;-71
2022/09/30 05:57:06;;;;;;;14.73;13.93;;;;;;;22.32;100.00;100359.66;5051806;28;20055;-71
2022/09/30 05:59:32;;;;;;;13.75;13.05;;;;;;;22.86;100.00;100353.38;5055053;28;20028;-72
2022/09/30 06:01:58;;;;;;;14.18;13.40;;;;;;;23.21;100.00;100352.81;5048941;28;20029;-73
2022/09/30 06:04:23;;;;;;;15.93;15.02;;;;;;;21.80;100.00;100353.97;5049218;28;20048;-71
2022/09/30 06:06:49;;;;;;;13.90;13.20;;;;;;;22.43;100.00;100362.47;5041668;28;20044;-70
2022/09/30 06:09:16;;;;;;;14.20;13.40;;;;;;;21.44;100.00;100361.63;5047427;28;20119;-69
2022/09/30 06:11:42;;;;;;;14.73;13.93;;;;;;;21.64;100.00;100361.06;5053366;28;20111;-69
2022/09/30 06:14:07;;;;;;;14.02;13.32;;;;;;;20.96;100.00;100359.59;5039363;28;20116;-72
2022/09/30 06:16:33;;;;;;;13.50;12.80;;;;;;;20.88;100.00;100360.03;5049528;28;20020;-71
2022/09/30 06:18:58;;;;;;;14.77;13.98;;;;;;;21.43;100.00;100360.00;5051601;28;20315;-71
2022/09/30 06:21:24;;;;;;;13.75;13.05;;;;;;;22.48;100.00;100363.34;5054539;28;20032;-71
2022/09/30 06:23:50;;;;;;;13.43;12.73;;;;;;;24.24;100.00;100365.66;5050176;28;20033;-71
2022/09/30 06:26:15;;;;;;;13.65;12.95;;;;;;;26.06;100.00;100369.06;5042840;28;20029;-71
2022/09/30 06:28:43;;;;;;;13.73;13.02;;;;;;;28.56;100.00;100369.91;5053876;28;20024;-70
2022/09/30 06:31:10;;;;;;;13.45;12.80;;;;;;;27.97;97.44;100370.53;5049773;28;20087;-70
2022/09/30 06:33:35;;;;;;;13.00;12.40;;;;;;;28.41;98.15;100378.34;5047172;28;20102;-71
2022/09/30 06:36:05;;;;;;;12.95;12.35;;;;;;;27.90;94.45;100375.53;5051075;28;20480;-71
2022/09/30 06:38:32;;;;;;;12.95;12.35;;;;;;;27.31;100.00;100382.22;5045062;28;20489;-70
2022/09/30 06:40:59;;;;;;;13.05;12.45;;;;;;;28.12;96.91;100370.28;5044165;28;20040;-71
2022/09/30 06:43:24;;;;;;;12.90;12.30;;;;;;;27.09;94.44;100377.28;5044434;28;20029;-71
2022/09/30 06:45:50;;;;;;;12.48;11.88;;;;;;;30.40;82.98;100382.66;5041184;28;20120;-70
2022/09/30 06:48:16;;;;;;;13.02;12.43;;;;;;;30.39;81.98;100401.00;5050161;28;20076;-72
2022/09/30 06:50:42;;;;;;;13.13;12.52;;;;;;;31.47;74.15;100416.38;5054517;28;20534;-70
2022/09/30 06:53:10;;;;;;;13.20;12.60;;;;;;;31.06;75.74;100413.88;5050480;28;20115;-69
2022/09/30 06:55:37;;;;;;;13.60;13.00;;;;;;;30.57;81.44;100418.41;5050151;28;20028;-72
2022/09/30 06:58:08;;;;;;;13.40;12.80;;;;;;;32.11;74.94;100413.97;5051020;28;20033;-71
2022/09/30 07:00:35;;;;;;;13.02;12.43;;;;;;;32.51;69.52;100416.56;5051071;28;20052;-70
2022/09/30 07:03:00;;;;;;;12.77;12.18;;;;;;;32.84;63.92;100405.84;5051408;28;20094;-70
2022/09/30 07:05:26;;;;;;;12.82;12.23;;;;;;;32.78;65.46;100406.34;5059686;28;20726;-71
2022/09/30 07:07:52;;;;;;;13.45;12.85;;;;;;;31.46;68.04;100406.53;5051865;28;20032;-69
2022/09/30 07:10:18;;;;;;;12.55;11.95;;;;;;;29.14;89.97;100398.69;5047540;28;20049;-70
2022/09/30 07:12:48;;;;;;;12.50;11.90;;;;;;;29.71;80.73;100410.19;5051420;28;20147;-69
2022/09/30 07:15:14;;;;;;;13.05;12.45;;;;;;;27.83;84.56;100410.50;5047787;28;20025;-69
2022/09/30 07:17:39;;;;;;;13.02;12.43;;;;;;;29.66;87.76;100413.81;5046148;28;20104;-70
2022/09/30 07:20:06;;;;;;;12.90;12.30;;;;;;;32.50;68.43;100408.66;5050040;28;20522;-70
2022/09/30 07:22:33;;;;;;;12.57;11.98;;;;;;;33.14;63.87;100398.50;5041269;28;20033;-71
2022/09/30 07:25:01;;;;;;;12.80;12.20;;;;;;;30.33;68.60;100404.19;5044899;28;20033;-70
2022/09/30 07:27:30;;;;;;;12.50;11.90;;;;;;;33.11;64.13;100406.59;5055859;28;20120;-70
2022/09/30 07:29:56;;;;;;;13.27;12.68;;;;;;;34.77;55.88;100413.47;5042675;28;20468;-70
2022/09/30 07:32:21;;;;;;;12.85;12.25;;;;;;;32.88;59.83;100406.81;5052633;28;20135;-70
2022/09/30 07:34:47;;;;;;;12.60;12.00;;;;;;;34.24;52.75;100409.56;5049045;28;20060;-70
2022/09/30 07:37:16;;;;;;;12.73;12.13;;;;;;;33.42;52.18;100420.91;5047379;28;20116;-69
2022/09/30 07:39:43;;;;;;;12.63;12.02;;;;;;;34.19;50.48;100418.84;5037687;28;20029;-68
2022/09/30 07:42:10;;;;;;;12.98;12.38;;;;;;;35.68;47.38;100420.50;5049621;28;20400;-71
2022/09/30 07:44:40;;;;;;;13.40;12.80;;;;;;;33.40;50.90;100420.41;5047140;28;20147;-71
2022/09/30 07:47:07;;;;;;;12.63;12.02;;;;;;;35.17;49.24;100425.53;5051382;28;20473;-71
2022/09/30 07:49:33;;;;;;;12.50;11.90;;;;;;;33.15;52.61;100438.63;5042541;28;20111;-73
2022/09/30 07:51:59;;;;;;;12.43;11.82;;;;;;;35.64;47.91;100447.22;5045891;28;20101;-72
2022/09/30 07:54:27;;;;;;;12.40;11.80;;;;;;;35.23;47.69;100434.38;5047032;28;20438;-71
2022/09/30 07:56:53;;;;;;;12.40;11.80;;;;;;;35.51;45.67;100440.06;5049212;28;20472;-72
2022/09/30 07:59:20;;;;;;;12.40;11.80;;;;;;;33.84;48.55;100442.19;5040403;28;20438;-73
2022/09/30 08:01:46;;;;;;;12.02;11.52;;;;;;;34.09;52.97;100452.28;5050439;28;20030;-72
2022/09/30 08:04:13;;;;;;;12.93;12.32;;;;;;;34.29;49.22;100432.19;5054867;28;20071;-70
2022/09/30 08:06:44;;;;;;;13.18;12.57;;;;;;;34.95;49.13;100455.47;5059281;28;20056;-70
2022/09/30 08:09:10;;;;;;;11.82;11.32;;;;;;;32.98;55.56;100439.47;5042244;28;20033;-69
2022/09/30 08:11:37;;;;;;;11.57;11.07;;;;;;;33.66;49.98;100458.00;5044700;28;20028;-71
2022/09/30 08:14:03;;;;;;;12.30;11.70;;;;;;;34.60;47.33;100445.56;5051754;28;20029;-69
2022/09/30 08:16:28;;;;;;;12.50;11.90;;;;;;;34.81;48.96;100458.50;5049792;28;20032;-71
2022/09/30 08:18:56;;;;;;;12.30;11.70;;;;;;;34.81;47.11;100461.25;5053921;28;20033;-70
2022/09/30 08:27:38;;;;;;;12.57;11.98;;;;;;;32.62;52.20;100466.50;3873315;23;20380;-73
2022/09/30 08:30:04;;;;;;;14.07;13.38;;;;;;;33.17;49.36;100463.81;4989115;28;20362;-73
2022/09/30 08:35:08;;;;;;;19.60;18.45;;;;;;;33.71;50.34;100458.63;5064878;23;20156;-69
2022/09/30 08:37:33;;;;;;;14.18;13.48;;;;;;;33.98;47.71;100465.63;4989027;28;20033;-70
2022/09/30 08:39:59;;;;;;;14.55;13.75;;;;;;;34.01;48.17;100461.41;4997562;28;20030;-70
2022/09/30 08:43:07;;;;;;;14.45;13.65;;;;;;;31.68;54.25;100454.19;4985738;28;20036;-70
2022/09/30 08:46:20;;;;;;;14.88;14.07;;;;;;;29.65;68.32;100464.16;4987609;28;20057;-69
2022/09/30 08:49:10;;;;;;;14.30;13.50;;;;;;;30.76;61.95;100467.53;4981145;28;20104;-69
2022/09/30 08:51:42;;;;;;;14.98;14.18;;;;;;;29.62;65.91;100470.22;4990220;28;20026;-68
2022/09/30 08:54:12;;;;;;;14.23;13.43;;;;;;;30.33;64.00;100470.69;4992294;28;20062;-68
2022/09/30 08:56:38;;;;;;;13.77;13.07;;;;;;;31.61;57.27;100471.91;4982890;28;20051;-69
2022/09/30 08:59:22;;;;;;;13.98;13.27;;;;;;;31.98;55.51;100479.94;4986576;28;20034;-68
2022/09/30 09:01:52;;;;;;;12.77;12.18;;;;;;;33.25;53.15;100467.69;4987619;28;20041;-69
2022/09/30 09:04:18;;;;;;;13.63;12.93;;;;;;;32.98;52.20;100466.16;4988030;28;20042;-70
2022/09/30 09:06:57;;;;;;;13.55;12.85;;;;;;;33.24;52.50;100463.31;4993133;28;20042;-70
2022/09/30 09:09:50;;;;;;;13.38;12.68;;;;;;;32.92;50.23;100464.69;4986197;28;20046;-69
2022/09/30 09:12:27;;;;;;;12.82;12.23;;;;;;;34.57;47.13;100471.03;4989900;28;20460;-68
2022/09/30 09:15:21;;;;;;;15.00;14.20;;;;;;;33.47;48.62;100469.41;4987194;28;20053;-69
2022/09/30 09:18:24;;;;;;;14.20;13.48;;;;;;;33.24;51.69;100469.63;4992317;28;20037;-68
2022/09/30 09:20:54;;;;;;;13.98;13.27;;;;;;;32.07;54.06;100473.34;4988972;28;20044;-68
2022/09/30 09:23:20;;;;;;;13.05;12.45;;;;;;;30.72;64.92;100463.81;4993570;28;20038;-68
2022/09/30 09:25:49;;;;;;;12.93;12.32;;;;;;;29.48;69.33;100450.25;4989572;28;20100;-68
2022/09/30 09:28:24;;;;;;;13.68;12.98;;;;;;;29.18;72.89;100451.63;4987774;28;20037;-66
2022/09/30 09:30:57;;;;;;;14.48;13.68;;;;;;;30.53;64.74;100450.25;4996662;28;20121;-67
2022/09/30 09:33:34;;;;;;;15.50;14.60;;;;;;;31.23;62.74;100449.66;4986541;28;20034;-67
2022/09/30 09:36:13;;;;;;;13.93;13.20;;;;;;;30.81;67.06;100445.50;4995570;28;20052;-66
2022/09/30 09:39:15;;;;;;;14.57;13.77;;;;;;;28.65;80.65;100440.22;4994481;28;20028;-67
2022/09/30 09:41:54;;;;;;;13.25;12.55;;;;;;;29.64;76.17;100437.91;4996285;28;20030;-68
2022/09/30 09:44:38;;;;;;;12.70;12.10;;;;;;;29.33;76.95;100442.34;4991207;28;20034;-68
2022/09/30 09:47:12;;;;;;;13.15;12.45;;;;;;;29.46;78.04;100438.81;4988367;28;20117;-68
2022/09/30 09:49:44;;;;;;;13.40;12.70;;;;;;;29.19;82.71;100445.03;4992424;28;20038;-68
2022/09/30 09:52:13;;;;;;;13.30;12.60;;;;;;;28.52;86.54;100439.03;4995304;28;20529;-69
2022/09/30 09:54:44;;;;;;;13.63;12.93;;;;;;;27.88;90.21;100441.25;4992011;28;20030;-67
2022/09/30 09:57:14;;;;;;;12.65;12.05;;;;;;;27.37;94.57;100441.81;4990946;28;20389;-68
2022/09/30 10:02:59;;;;;;;13.40;12.70;;;;;;;27.41;96.32;100447.50;4999374;28;20404;-68
2022/09/30 10:05:25;;;;;;;14.65;13.85;;;;;;;27.58;95.15;100441.59;4997797;28;20034;-67
2022/09/30 10:08:10;;;;;;;12.80;12.20;;;;;;;26.37;100.00;100434.19;4999022;28;20129;-66
2022/09/30 10:10:56;;;;;;;14.07;13.27;;;;;;;26.08;100.00;100426.72;4989980;28;20073;-66
2022/09/30 10:13:25;;;;;;;14.15;13.35;;;;;;;25.28;100.00;100423.19;4996842;28;20324;-67
2022/09/30 10:15:53;;;;;;;13.45;12.75;;;;;;;25.68;100.00;100413.28;4995074;28;20050;-67
2022/09/30 10:18:25;;;;;;;14.80;14.00;;;;;;;25.17;100.00;100421.56;4993909;28;20054;-67
2022/09/30 10:20:57;;;;;;;14.15;13.35;;;;;;;25.55;100.00;100423.63;4993560;28;20030;-66
2022/09/30 10:23:30;;;;;;;14.23;13.40;;;;;;;25.95;100.00;100429.25;4995014;28;20038;-66
2022/09/30 10:26:20;;;;;;;14.27;13.48;;;;;;;26.11;100.00;100415.28;5002356;28;20042;-67
2022/09/30 10:28:55;;;;;;;14.95;14.07;;;;;;;26.12;100.00;100403.31;4997379;28;20144;-68
2022/09/30 10:31:41;;;;;;;14.32;13.52;;;;;;;26.09;100.00;100413.94;4989933;28;20489;-68
2022/09/30 10:34:29;;;;;;;15.13;14.25;;;;;;;26.30;100.00;100410.00;4989723;28;20038;-67
2022/09/30 10:36:58;;;;;;;14.93;14.13;;;;;;;26.02;100.00;100414.25;4983899;28;20029;-67
2022/09/30 10:39:39;;;;;;;14.93;14.13;;;;;;;26.62;100.00;100420.41;4987673;28;20044;-66
2022/09/30 10:42:20;;;;;;;13.60;12.90;;;;;;;26.32;100.00;100418.69;4993929;28;20609;-68
2022/09/30 10:44:54;;;;;;;14.63;13.82;;;;;;;25.57;100.00;100412.50;4986649;28;20504;-68
2022/09/30 10:47:21;;;;;;;;;;;;;;;25.88;100.00;100416.75;4991151;28;20357;-67
2022/09/30 10:50:06;;;;;;;13.07;12.40;;;;;;;26.66;100.00;100415.19;4987674;28;20131;-68
2022/09/30 10:52:36;;;;;;;13.95;13.20;;;;;;;26.89;100.00;100419.13;4983948;28;20595;-68
2022/09/30 10:55:08;;;;;;;13.45;12.75;;;;;;;26.43;100.00;100411.28;4994774;28;20322;-67
2022/09/30 10:57:37;;;;;;;12.63;12.02;;;;;;;26.74;100.00;100406.44;4977836;28;20469;-68
2022/09/30 11:00:06;;;;;;;13.13;12.43;;;;;;;26.20;100.00;100401.91;4996373;28;20038;-68
2022/09/30 11:02:50;;;;;;;12.80;12.20;;;;;;;26.03;100.00;100402.28;4993003;28;20062;-68
2022/09/30 11:05:26;;;;;;;13.15;12.45;;;;;;;26.55;100.00;100405.50;4988614;28;20048;-68
2022/09/30 11:08:11;;;;;;;13.48;12.77;;;;;;;26.64;100.00;100407.31;4982859;28;20043;-66
2022/09/30 11:10:46;;;;;;;13.27;12.57;;;;;;;26.43;98.47;100393.06;4983868;28;20058;-67
2022/09/30 11:13:26;;;;;;;12.55;11.95;;;;;;;26.53;95.39;100394.91;4991517;28;20428;-67
2022/09/30 11:16:10;;;;;;;13.77;13.05;;;;;;;26.57;94.46;100395.16;4988501;28;20045;-66
2022/09/30 11:18:51;;;;;;;13.63;12.93;;;;;;;26.83;90.19;100387.59;4987744;28;20512;-68
2022/09/30 11:22:00;;;;;;;13.02;12.32;;;;;;;26.27;91.09;100391.53;4998298;28;20463;-67
2022/09/30 11:24:35;;;;;;;13.18;12.48;;;;;;;26.13;87.08;100390.53;4996558;28;20476;-68
2022/09/30 11:27:28;;;;;;;12.90;12.25;;;;;;;26.82;85.13;100405.03;4997178;28;20392;-66
2022/09/30 11:30:16;;;;;;;13.55;12.85;;;;;;;26.59;89.07;100401.13;4989060;28;20574;-67
2022/09/30 11:32:51;;;;;;;13.23;12.52;;;;;;;26.25;84.71;100396.44;4991309;28;20505;-69
2022/09/30 11:35:43;;;;;;;13.93;13.18;;;;;;;26.46;87.45;100409.94;4998243;28;20574;-69
2022/09/30 11:38:46;;;;;;;12.40;11.80;;;;;;;26.47;86.16;100404.19;4992740;28;20041;-68
2022/09/30 11:41:24;;;;;;;12.90;12.30;;;;;;;26.24;83.39;100402.97;5000637;28;21216;-68